createdAt,value
2018-05-10T00:01:54.961Z,36.37
2018-05-10T00:04:28.640Z,37.23
2018-05-10T00:07:02.278Z,38.80
2018-05-10T00:09:35.887Z,40.83
2018-05-10T00:12:09.572Z,41.90
2018-05-10T00:14:43.124Z,42.80
2018-05-10T00:17:16.776Z,42.30
2018-05-10T00:19:50.355Z,41.50
2018-05-10T00:22:23.904Z,43.03
2018-05-10T00:24:57.488Z,41.13
2018-05-10T00:27:31.024Z,43.33
2018-05-10T00:30:04.834Z,44.07
2018-05-10T00:32:38.475Z,44.47
2018-05-10T00:35:12.231Z,45.87
2018-05-10T00:37:45.901Z,46.53
2018-05-10T00:40:19.494Z,44.37
2018-05-10T00:42:53.213Z,46.50
2018-05-10T00:45:26.860Z,47.27
2018-05-10T00:48:00.379Z,46.63
2018-05-10T00:50:34.184Z,48.73
2018-05-10T00:53:07.760Z,47.67
2018-05-10T00:55:41.340Z,48.93
2018-05-10T00:58:14.967Z,47.50
2018-05-10T01:00:48.709Z,46.03
2018-05-10T01:03:22.260Z,46.83
2018-05-10T01:05:55.908Z,44.23
2018-05-10T01:08:29.688Z,44.50
2018-05-10T01:11:03.316Z,44.27
2018-05-10T01:13:37.178Z,43.27
2018-05-10T01:16:11.089Z,43.23
2018-05-10T01:18:44.704Z,42.40
2018-05-10T01:21:18.291Z,43.20
2018-05-10T01:23:51.915Z,42.17
2018-05-10T01:26:25.924Z,44.07
2018-05-10T01:28:59.656Z,42.37
2018-05-10T01:31:33.264Z,42.40
2018-05-10T01:34:06.847Z,44.80
2018-05-10T01:36:40.488Z,45.73
2018-05-10T01:39:14.209Z,45.10
2018-05-10T01:41:48.016Z,46.53
2018-05-10T01:44:21.532Z,44.23
2018-05-10T01:46:55.543Z,44.83
2018-05-10T01:49:29.089Z,43.37
2018-05-10T01:52:02.611Z,43.53
2018-05-10T01:54:36.144Z,45.07
2018-05-10T01:57:09.702Z,45.67
2018-05-10T01:59:43.319Z,43.37
2018-05-10T02:02:16.896Z,42.23
2018-05-10T02:04:50.455Z,41.67
2018-05-10T02:07:24.072Z,41.23
2018-05-10T02:09:58.060Z,39.63
2018-05-10T02:12:31.822Z,39.43
2018-05-10T02:15:05.328Z,38.97
2018-05-10T02:17:39.028Z,39.57
2018-05-10T02:20:12.516Z,38.70
2018-05-10T02:22:46.232Z,36.27
2018-05-10T02:25:19.818Z,37.43
2018-05-10T02:27:53.403Z,36.40
2018-05-10T02:30:27.186Z,36.30
2018-05-10T02:33:00.795Z,35.93
2018-05-10T02:35:34.358Z,36.37
2018-05-10T02:38:07.957Z,36.50
2018-05-10T02:40:41.514Z,36.90
2018-05-10T02:43:15.235Z,36.80
2018-05-10T02:45:48.865Z,34.90
2018-05-10T02:48:22.416Z,32.93
2018-05-10T02:50:56.110Z,31.67
2018-05-10T02:53:29.598Z,31.87
2018-05-10T02:56:03.352Z,31.50
2018-05-10T02:58:37.054Z,30.27
2018-05-10T03:01:10.740Z,28.80
2018-05-10T03:03:44.445Z,26.43
2018-05-10T03:06:17.961Z,23.53
2018-05-10T03:08:51.672Z,20.50
2018-05-10T03:11:25.431Z,19.57
2018-05-10T03:13:59.103Z,16.30
2018-05-10T03:16:32.640Z,16.17
2018-05-10T03:19:06.177Z,14.13
2018-05-10T03:21:39.732Z,14.53
2018-05-10T03:24:13.309Z,16.00
2018-05-10T03:26:46.860Z,16.13
2018-05-10T03:29:20.572Z,17.23
2018-05-10T03:31:54.196Z,17.40
2018-05-10T03:34:27.772Z,17.00
2018-05-10T03:37:01.353Z,17.10
2018-05-10T03:39:34.913Z,17.70
2018-05-10T03:42:08.608Z,19.33
2018-05-10T03:44:42.169Z,18.57
2018-05-10T03:47:15.732Z,18.43
2018-05-10T03:49:49.227Z,18.53
2018-05-10T03:52:23.000Z,19.40
2018-05-10T03:54:56.720Z,19.03
2018-05-10T03:57:30.319Z,20.17
2018-05-10T04:00:03.892Z,21.13
2018-05-10T04:02:41.484Z,22.60
2018-05-10T04:05:26.992Z,22.20
2018-05-10T04:08:12.387Z,23.77
2018-05-10T04:10:57.980Z,24.57
2018-05-10T04:13:32.504Z,24.60
2018-05-10T04:16:06.042Z,26.33
2018-05-10T04:18:39.545Z,25.47
2018-05-10T04:21:13.264Z,26.00
2018-05-10T04:23:46.823Z,25.30
2018-05-10T04:26:20.420Z,25.57
2018-05-10T04:28:54.004Z,26.47
2018-05-10T04:31:27.604Z,27.53
2018-05-10T04:34:01.191Z,26.00
2018-05-10T04:36:34.812Z,25.57
2018-05-10T04:39:08.344Z,26.40
2018-05-10T04:41:42.036Z,26.67
2018-05-10T04:44:15.616Z,25.93
2018-05-10T04:46:49.379Z,27.83
2018-05-10T04:49:23.106Z,28.67
2018-05-10T04:51:56.744Z,28.80
2018-05-10T04:54:30.428Z,29.03
2018-05-10T04:57:04.216Z,31.50
2018-05-10T04:59:38.184Z,30.20
2018-05-10T05:02:11.812Z,31.60
2018-05-10T05:04:45.572Z,29.50
2018-05-10T05:07:19.101Z,29.33
2018-05-10T05:09:52.928Z,28.27
2018-05-10T05:12:26.566Z,28.33
2018-05-10T05:15:00.184Z,28.63
2018-05-10T05:17:33.847Z,25.73
2018-05-10T05:20:07.615Z,27.57
2018-05-10T05:22:41.356Z,27.07
2018-05-10T05:25:14.860Z,28.10
2018-05-10T05:27:48.644Z,28.37
2018-05-10T05:30:22.169Z,26.97
2018-05-10T05:32:55.920Z,25.40
2018-05-10T05:35:29.539Z,25.23
2018-05-10T05:38:03.052Z,24.60
2018-05-10T05:40:36.632Z,22.53
2018-05-10T05:43:10.279Z,21.33
2018-05-10T05:45:44.154Z,19.50
2018-05-10T05:48:17.917Z,20.43
2018-05-10T05:50:51.549Z,19.90
2018-05-10T05:53:25.211Z,20.60
2018-05-10T05:55:58.800Z,19.40
2018-05-10T05:58:32.564Z,19.40
2018-05-10T06:01:06.257Z,20.20
2018-05-10T06:03:39.756Z,21.07
2018-05-10T06:06:13.289Z,22.37
2018-05-10T06:08:46.868Z,21.37
2018-05-10T06:11:20.420Z,21.20
2018-05-10T06:13:54.012Z,22.00
2018-05-10T06:16:27.691Z,21.97
2018-05-10T06:19:01.452Z,22.37
2018-05-10T06:21:35.323Z,21.20
2018-05-10T06:24:09.008Z,20.33
2018-05-10T06:26:42.690Z,18.13
2018-05-10T06:29:16.343Z,17.17
2018-05-10T06:31:50.000Z,17.33
2018-05-10T06:34:23.604Z,15.53
2018-05-10T06:36:57.123Z,14.47
2018-05-10T06:39:30.864Z,13.13
2018-05-10T06:42:04.536Z,12.53
2018-05-10T06:44:38.101Z,11.23
2018-05-10T06:47:25.743Z,10.73
2018-05-10T06:49:59.520Z,10.33
2018-05-10T06:52:33.277Z,10.53
2018-05-10T06:55:06.964Z,10.80
2018-05-10T06:57:40.600Z,10.00
2018-05-10T07:00:14.273Z,10.23
2018-05-10T07:02:48.049Z,9.53
2018-05-10T07:05:21.625Z,9.63
2018-05-10T07:07:55.224Z,9.57
2018-05-10T07:10:28.896Z,9.43
2018-05-10T07:13:02.660Z,9.47
2018-05-10T07:15:36.528Z,9.93
2018-05-10T07:18:10.095Z,9.50
2018-05-10T07:20:43.625Z,10.47
2018-05-10T07:23:17.280Z,10.60
2018-05-10T07:25:50.811Z,10.60
2018-05-10T07:28:24.462Z,11.73
2018-05-10T07:30:58.111Z,11.57
2018-05-10T07:33:31.767Z,11.27
2018-05-10T07:36:05.339Z,10.90
2018-05-10T07:38:39.048Z,10.40
2018-05-10T07:41:12.630Z,10.93
2018-05-10T07:43:46.305Z,11.30
2018-05-10T07:46:19.871Z,11.20
2018-05-10T07:48:53.392Z,11.03
2018-05-10T07:51:27.332Z,10.87
2018-05-10T07:54:00.917Z,10.53
2018-05-10T07:56:34.472Z,10.13
2018-05-10T07:59:08.048Z,11.30
2018-05-10T08:01:41.672Z,10.07
2018-05-10T08:04:15.354Z,11.60
2018-05-10T08:06:48.932Z,11.13
2018-05-10T08:09:22.564Z,12.43
2018-05-10T08:11:56.212Z,13.90
2018-05-10T08:14:29.867Z,14.77
2018-05-10T08:17:03.692Z,13.50
2018-05-10T08:19:37.252Z,14.03
2018-05-10T08:22:10.776Z,14.03
2018-05-10T08:24:44.376Z,14.50
2018-05-10T08:27:18.157Z,13.97
2018-05-10T08:29:51.741Z,12.80
2018-05-10T08:32:25.265Z,13.17
2018-05-10T08:34:59.080Z,12.47
2018-05-10T08:37:32.586Z,13.30
2018-05-10T08:40:06.205Z,14.60
2018-05-10T08:42:39.862Z,13.57
2018-05-10T08:45:13.661Z,13.53
2018-05-10T08:47:47.401Z,13.23
2018-05-10T08:50:20.951Z,13.27
2018-05-10T08:52:54.622Z,12.30
2018-05-10T08:55:28.429Z,11.17
2018-05-10T08:58:02.129Z,11.03
2018-05-10T09:00:35.933Z,9.27
2018-05-10T09:03:09.428Z,9.30
2018-05-10T09:05:42.928Z,9.40
2018-05-10T09:08:16.738Z,8.83
2018-05-10T09:10:50.402Z,9.23
2018-05-10T09:13:24.056Z,9.20
2018-05-10T09:15:57.668Z,9.97
2018-05-10T09:18:31.340Z,9.80
2018-05-10T09:21:04.929Z,9.90
2018-05-10T09:23:38.543Z,11.33
2018-05-10T09:26:12.242Z,13.40
2018-05-10T09:28:45.909Z,13.00
2018-05-10T09:31:19.468Z,11.20
2018-05-10T09:33:53.042Z,9.77
2018-05-10T09:36:26.621Z,9.07
2018-05-10T09:39:00.373Z,7.20
2018-05-10T09:41:34.109Z,7.00
2018-05-10T09:44:07.777Z,5.40
2018-05-10T09:46:41.457Z,3.80
2018-05-10T09:49:15.058Z,3.00
2018-05-10T09:51:48.557Z,3.83
2018-05-10T09:54:22.120Z,3.67
2018-05-10T09:56:55.729Z,3.27
2018-05-10T09:59:29.292Z,3.47
2018-05-10T10:02:02.921Z,3.43
2018-05-10T10:04:36.738Z,3.30
2018-05-10T10:07:10.352Z,3.03
2018-05-10T10:09:43.906Z,3.17
2018-05-10T10:12:17.535Z,2.50
2018-05-10T10:14:51.288Z,2.30
2018-05-10T10:17:24.849Z,1.87
2018-05-10T10:19:58.468Z,1.63
2018-05-10T10:22:32.221Z,1.70
2018-05-10T10:25:05.956Z,1.53
2018-05-10T10:27:39.493Z,1.50
2018-05-10T10:30:13.235Z,1.40
2018-05-10T10:32:47.002Z,1.30
2018-05-10T10:35:20.753Z,1.60
2018-05-10T10:37:54.552Z,2.03
2018-05-10T10:40:28.297Z,2.00
2018-05-10T10:43:02.130Z,2.70
2018-05-10T10:45:35.677Z,2.73
2018-05-10T10:48:09.499Z,2.77
2018-05-10T10:50:43.213Z,2.83
2018-05-10T10:53:16.849Z,3.13
2018-05-10T10:55:50.617Z,2.97
2018-05-10T10:58:24.151Z,3.10
2018-05-10T11:00:57.669Z,3.10
2018-05-10T11:03:31.281Z,4.10
2018-05-10T11:06:04.813Z,4.23
2018-05-10T11:08:38.429Z,3.77
2018-05-10T11:11:12.137Z,3.87
2018-05-10T11:13:45.688Z,4.70
2018-05-10T11:16:19.239Z,4.63
2018-05-10T11:18:53.100Z,5.37
2018-05-10T11:21:26.649Z,5.90
2018-05-10T11:24:00.381Z,7.23
2018-05-10T11:26:33.901Z,8.63
2018-05-10T11:29:07.429Z,6.93
2018-05-10T11:31:40.957Z,7.80
2018-05-10T11:34:14.588Z,9.33
2018-05-10T11:36:48.186Z,9.20
2018-05-10T11:39:21.901Z,9.20
2018-05-10T11:41:55.589Z,10.93
2018-05-10T11:44:29.146Z,11.70
2018-05-10T11:47:02.793Z,12.03
2018-05-10T11:49:36.368Z,12.73
2018-05-10T11:52:09.954Z,11.53
2018-05-10T11:54:43.625Z,11.40
2018-05-10T11:57:17.402Z,12.03
2018-05-10T11:59:50.876Z,13.47
2018-05-10T12:02:24.389Z,13.43
2018-05-10T12:04:58.150Z,13.07
2018-05-10T12:07:31.697Z,13.30
2018-05-10T12:10:05.290Z,14.63
2018-05-10T12:12:39.000Z,16.10
2018-05-10T12:15:12.677Z,15.80
2018-05-10T12:17:46.259Z,16.27
2018-05-10T12:20:19.877Z,16.00
2018-05-10T12:22:53.369Z,16.10
2018-05-10T12:25:27.168Z,15.73
2018-05-10T12:28:00.873Z,16.73
2018-05-10T12:30:34.473Z,16.40
2018-05-10T12:33:08.199Z,16.17
2018-05-10T12:35:41.722Z,16.97
2018-05-10T12:38:15.252Z,16.03
2018-05-10T12:40:48.753Z,16.83
2018-05-10T12:43:22.290Z,16.67
2018-05-10T12:45:56.040Z,17.27
2018-05-10T12:48:29.789Z,16.97
2018-05-10T12:51:03.404Z,18.77
2018-05-10T12:53:37.122Z,21.07
2018-05-10T12:56:10.873Z,19.67
2018-05-10T12:58:44.385Z,19.50
2018-05-10T13:01:18.093Z,19.93
2018-05-10T13:03:51.686Z,20.83
2018-05-10T13:06:25.260Z,19.47
2018-05-10T13:08:59.023Z,19.23
2018-05-10T13:11:32.849Z,20.87
2018-05-10T13:14:06.478Z,20.93
2018-05-10T13:16:40.207Z,20.23
2018-05-10T13:19:13.730Z,20.87
2018-05-10T13:21:47.453Z,21.03
2018-05-10T13:24:21.158Z,20.10
2018-05-10T13:26:54.638Z,19.40
2018-05-10T13:29:28.461Z,20.17
2018-05-10T13:32:01.991Z,20.80
2018-05-10T13:34:35.802Z,21.00
2018-05-10T13:37:09.459Z,21.30
2018-05-10T13:39:43.228Z,20.80
2018-05-10T13:42:16.948Z,21.97
2018-05-10T13:44:50.652Z,21.37
2018-05-10T13:47:24.387Z,20.63
2018-05-10T13:49:57.873Z,20.17
2018-05-10T13:52:31.582Z,19.87
2018-05-10T13:55:05.221Z,20.30
2018-05-10T13:57:38.949Z,20.80
2018-05-10T14:00:12.481Z,18.37
2018-05-10T14:02:46.060Z,21.23
2018-05-10T14:05:19.677Z,20.67
2018-05-10T14:07:53.521Z,21.77
2018-05-10T14:10:27.118Z,19.97
2018-05-10T14:13:00.765Z,19.50
2018-05-10T14:15:35.014Z,20.00
2018-05-10T14:18:08.676Z,19.07
2018-05-10T14:20:42.502Z,19.97
2018-05-10T14:23:16.129Z,22.10
2018-05-10T14:25:49.912Z,21.80
2018-05-10T14:28:23.477Z,22.53
2018-05-10T14:30:57.334Z,22.97
2018-05-10T14:33:31.026Z,21.60
2018-05-10T14:36:04.574Z,22.87
2018-05-10T14:38:38.245Z,24.73
2018-05-10T14:41:11.907Z,21.83
2018-05-10T14:43:45.600Z,22.67
2018-05-10T14:46:19.207Z,23.27
2018-05-10T14:48:52.981Z,24.77
2018-05-10T14:51:26.719Z,21.93
2018-05-10T14:54:00.527Z,21.80
2018-05-10T14:56:34.274Z,22.00
2018-05-10T14:59:07.917Z,21.53
2018-05-10T15:01:41.648Z,20.17
2018-05-10T15:04:15.177Z,18.70
2018-05-10T15:06:48.929Z,19.47
2018-05-10T15:09:22.485Z,18.37
2018-05-10T15:11:56.063Z,20.73
2018-05-10T15:14:29.657Z,18.10
2018-05-10T15:17:03.242Z,17.30
2018-05-10T15:19:36.792Z,16.93
2018-05-10T15:22:10.601Z,17.13
2018-05-10T15:24:44.237Z,17.77
2018-05-10T15:27:17.877Z,15.27
2018-05-10T15:29:51.456Z,14.40
2018-05-10T15:32:25.214Z,13.40
2018-05-10T15:34:58.893Z,13.67
2018-05-10T15:37:32.744Z,14.80
2018-05-10T15:40:06.394Z,14.60
2018-05-10T15:42:39.945Z,12.53
2018-05-10T15:45:13.500Z,12.17
2018-05-10T15:47:47.096Z,11.63
2018-05-10T15:50:20.647Z,11.70
2018-05-10T15:52:54.127Z,10.40
2018-05-10T15:55:27.964Z,10.23
2018-05-10T15:58:01.560Z,9.77
2018-05-10T16:00:35.205Z,9.40
2018-05-10T16:03:09.048Z,8.87
2018-05-10T16:05:42.796Z,7.00
2018-05-10T16:08:16.576Z,6.03
2018-05-10T16:10:50.214Z,6.50
2018-05-10T16:13:24.072Z,5.70
2018-05-10T16:15:57.675Z,5.70
2018-05-10T16:18:31.219Z,6.17
2018-05-10T16:21:04.785Z,6.00
2018-05-10T16:23:38.660Z,6.00
2018-05-10T16:26:12.337Z,5.10
2018-05-10T16:28:46.040Z,5.07
2018-05-10T16:31:19.641Z,5.00
2018-05-10T16:33:53.348Z,4.90
2018-05-10T16:36:26.923Z,5.27
2018-05-10T16:39:00.555Z,4.97
2018-05-10T16:41:34.121Z,5.77
2018-05-10T16:44:07.739Z,5.77
2018-05-10T16:46:41.396Z,5.07
2018-05-10T16:49:15.155Z,4.53
2018-05-10T16:51:48.794Z,4.53
2018-05-10T16:54:22.445Z,4.47
2018-05-10T16:56:56.156Z,4.63
2018-05-10T16:59:29.934Z,4.03
2018-05-10T17:02:03.724Z,4.80
2018-05-10T17:04:37.432Z,4.47
2018-05-10T17:07:11.309Z,4.90
2018-05-10T17:09:45.113Z,4.80
2018-05-10T17:12:18.932Z,4.50
2018-05-10T17:14:52.515Z,4.40
2018-05-10T17:17:26.140Z,4.57
2018-05-10T17:19:59.861Z,4.40
2018-05-10T17:22:33.585Z,5.30
2018-05-10T17:25:07.273Z,5.00
2018-05-10T17:27:40.936Z,4.67
2018-05-10T17:30:14.530Z,4.43
2018-05-10T17:32:48.506Z,3.90
2018-05-10T17:35:22.224Z,4.27
2018-05-10T17:37:55.965Z,4.33
2018-05-10T17:40:29.645Z,4.50
2018-05-10T17:43:03.620Z,4.50
2018-05-10T17:45:37.538Z,3.97
2018-05-10T17:48:11.301Z,4.07
2018-05-10T17:50:44.979Z,4.00
2018-05-10T17:53:18.711Z,3.70
2018-05-10T17:55:52.372Z,3.93
2018-05-10T17:58:26.029Z,3.70
2018-05-10T18:00:59.663Z,4.13
2018-05-10T18:03:33.439Z,3.90
2018-05-10T18:06:07.074Z,3.73
2018-05-10T18:08:40.758Z,3.40
2018-05-10T18:11:14.418Z,3.40
2018-05-10T18:13:48.188Z,3.40
2018-05-10T18:19:21.978Z,2.87
2018-05-10T18:21:55.841Z,3.40
2018-05-10T18:24:29.531Z,3.40
2018-05-10T18:27:03.190Z,3.00
2018-05-10T18:29:36.768Z,2.73
2018-05-10T18:32:10.672Z,3.27
2018-05-10T18:34:44.323Z,2.63
2018-05-10T18:37:18.030Z,2.60
2018-05-10T18:39:51.717Z,3.10
2018-05-10T18:42:25.303Z,3.10
2018-05-10T18:44:59.025Z,3.47
2018-05-10T18:47:32.742Z,3.87
2018-05-10T18:50:06.425Z,4.03
2018-05-10T18:52:40.041Z,4.87
2018-05-10T18:55:13.873Z,3.57
2018-05-10T18:57:47.546Z,2.97
2018-05-10T19:00:21.211Z,3.40
2018-05-10T19:02:54.930Z,3.20
2018-05-10T19:05:28.661Z,3.50
2018-05-10T19:08:02.330Z,3.00
2018-05-10T19:10:36.057Z,2.93
2018-05-10T19:13:09.874Z,2.80
2018-05-10T19:15:43.707Z,3.00
2018-05-10T19:18:17.377Z,3.40
2018-05-10T19:20:51.148Z,4.13
2018-05-10T19:23:24.835Z,3.70
2018-05-10T19:25:58.587Z,3.63
2018-05-10T19:28:32.222Z,3.80
2018-05-10T19:31:05.959Z,4.27
2018-05-10T19:33:39.622Z,4.00
2018-05-10T19:36:13.243Z,4.13
2018-05-10T19:38:46.882Z,4.17
2018-05-10T19:41:20.603Z,4.20
2018-05-10T19:43:54.105Z,4.17
2018-05-10T19:46:27.739Z,4.27
2018-05-10T19:49:01.763Z,3.87
2018-05-10T19:51:35.778Z,3.90
2018-05-10T19:54:09.382Z,4.10
2018-05-10T19:56:43.004Z,3.93
2018-05-10T19:59:16.640Z,4.07
2018-05-10T20:01:50.366Z,3.90
2018-05-10T20:04:24.122Z,3.93
2018-05-10T20:06:57.858Z,4.20
2018-05-10T20:09:31.411Z,3.93
2018-05-10T20:12:05.170Z,3.80
2018-05-10T20:14:38.805Z,3.57
2018-05-10T20:17:12.616Z,4.00
2018-05-10T20:19:46.478Z,4.00
2018-05-10T20:22:20.174Z,3.83
2018-05-10T20:24:53.925Z,3.77
2018-05-10T20:27:27.684Z,4.23
2018-05-10T20:30:01.378Z,4.07
2018-05-10T20:32:35.106Z,4.00
2018-05-10T20:35:08.843Z,4.50
2018-05-10T20:37:42.491Z,4.07
2018-05-10T20:40:16.197Z,4.00
2018-05-10T20:42:49.914Z,4.10
2018-05-10T20:45:23.627Z,3.83
2018-05-10T20:47:57.217Z,3.40
2018-05-10T20:50:30.985Z,3.97
2018-05-10T20:53:04.748Z,4.10
2018-05-10T20:55:38.625Z,4.40
2018-05-10T20:58:12.266Z,4.30
2018-05-10T21:00:46.022Z,3.87
2018-05-10T21:03:19.690Z,4.10
2018-05-10T21:05:53.495Z,3.70
2018-05-10T21:08:27.522Z,3.80
2018-05-10T21:11:01.247Z,3.70
2018-05-10T21:13:34.956Z,4.03
2018-05-10T21:16:08.497Z,3.67
2018-05-10T21:18:42.159Z,4.07
2018-05-10T21:21:15.892Z,3.53
2018-05-10T21:23:49.692Z,4.00
2018-05-10T21:26:23.487Z,3.70
2018-05-10T21:28:57.222Z,4.40
2018-05-10T21:31:30.852Z,3.57
2018-05-10T21:34:04.653Z,3.83
2018-05-10T21:36:38.188Z,3.83
2018-05-10T21:39:11.881Z,3.93
2018-05-10T21:41:45.655Z,4.10
2018-05-10T21:44:19.352Z,3.93
2018-05-10T21:46:52.970Z,4.33
2018-05-10T21:49:38.625Z,5.03
2018-05-10T21:52:12.341Z,5.30
2018-05-10T21:54:46.159Z,5.37
2018-05-10T21:57:19.951Z,5.77
2018-05-10T21:59:53.525Z,5.87
2018-05-10T22:02:27.152Z,6.17
2018-05-10T22:05:00.874Z,6.70
2018-05-10T22:07:34.678Z,6.77
2018-05-10T22:10:08.213Z,6.83
2018-05-10T22:12:41.933Z,6.97
2018-05-10T22:15:15.641Z,6.70
2018-05-10T22:17:49.282Z,7.40
2018-05-10T22:20:23.066Z,7.67
2018-05-10T22:22:56.807Z,7.10
2018-05-10T22:25:30.525Z,8.03
2018-05-10T22:28:04.085Z,7.70
2018-05-10T22:30:37.863Z,7.03
2018-05-10T22:33:11.577Z,7.93
2018-05-10T22:35:45.177Z,9.10
2018-05-10T22:38:19.037Z,7.83
2018-05-10T22:40:52.810Z,8.07
2018-05-10T22:43:26.442Z,8.63
2018-05-10T22:46:00.041Z,8.27
2018-05-10T22:48:33.681Z,8.80
2018-05-10T22:51:07.672Z,7.77
2018-05-10T22:53:41.403Z,7.83
2018-05-10T22:56:15.167Z,8.80
2018-05-10T22:58:48.985Z,8.33
2018-05-10T23:01:22.700Z,8.50
2018-05-10T23:03:56.490Z,9.50
2018-05-10T23:06:30.073Z,8.10
2018-05-10T23:09:03.725Z,9.33
2018-05-10T23:11:37.533Z,8.63
2018-05-10T23:14:11.133Z,8.90
2018-05-10T23:16:44.913Z,8.90
2018-05-10T23:19:18.737Z,9.07
2018-05-10T23:21:52.438Z,9.97
2018-05-10T23:24:26.057Z,9.63
2018-05-10T23:26:59.925Z,9.30
2018-05-10T23:29:33.844Z,8.93
2018-05-10T23:32:07.544Z,10.47
2018-05-10T23:34:41.191Z,9.17
2018-05-10T23:37:15.067Z,9.77
2018-05-10T23:39:48.688Z,9.40
2018-05-10T23:42:22.262Z,10.73
2018-05-10T23:44:55.909Z,9.87
2018-05-10T23:47:29.613Z,9.93
2018-05-10T23:50:03.193Z,9.80
2018-05-10T23:52:36.804Z,9.93
2018-05-10T23:55:10.532Z,10.70
2018-05-10T23:57:44.355Z,9.97
